Iloilo, Philippines
Current Conditions -  °F | °C
As of 11:00 PM on Wednesday 22 Oct 2014 (Local Time) from RPVM Reporting Station
Broken Clouds Broken Clouds  
Wind Chill: 81°   Ceiling: 30000
Heat Index: 86°   Visibility: 6mi
Dew Point: 75°   Wind: 5mph
Humidity: 84%   Direction: 350°N
Pressure: 29.88"   Gusts: NA
Location:  10.69°N, 122.55°E
Report Text: RPVM 221500Z 35004KT 9999 FEW018CB BKN300 27/24 Q1012 RMKA2988 CB WNW WITH OCCNL LGTNG
Loading
Personal Weather Stations






























Interactive Weather Map
Tropical Storm Tracking
New forecast layout! Learn more

10-Day Weather Forecast

Advertisements
Track Severe Weather on mobile